Time;durP1;ratioP1;P1;durP2;ratioP2;P2;SDS_P1;SDS_P2;PMS_P1;PMS_P2;Temp;Humidity;BMP_temperature;BMP_pressure;BME280_temperature;BME280_humidity;BME280_pressure;Samples;Min_cycle;Max_cycle;Signal;HPM_P1;HPM_P2
2022/05/24 00:01:30;;;;;;;10.85;6.00;;;13.90;99.90;;;;;;4984285;28;20077;-68
2022/05/24 00:03:56;;;;;;;8.60;5.95;;;13.90;99.90;;;;;;4991239;28;20042;-72
2022/05/24 00:06:26;;;;;;;8.80;5.30;;;13.80;99.90;;;;;;4978335;28;20450;-70
2022/05/24 00:08:52;;;;;;;9.57;5.60;;;13.80;99.90;;;;;;4996770;28;20549;-70
2022/05/24 00:11:18;;;;;;;10.07;5.57;;;13.80;99.90;;;;;;4995902;28;20050;-68
2022/05/24 00:13:43;;;;;;;7.20;5.10;;;13.80;99.90;;;;;;4977027;28;20081;-69
2022/05/24 00:16:10;;;;;;;11.23;5.82;;;13.80;99.90;;;;;;4994716;28;20100;-69
2022/05/24 00:18:36;;;;;;;9.32;5.78;;;13.80;99.90;;;;;;4983063;28;20065;-68
2022/05/24 00:21:04;;;;;;;12.57;6.18;;;13.80;99.90;;;;;;4977246;28;20061;-71
2022/05/24 00:23:30;;;;;;;7.47;5.40;;;13.70;99.90;;;;;;4981436;28;20495;-70
2022/05/24 00:26:00;;;;;;;12.63;5.93;;;13.70;99.90;;;;;;4991983;28;20490;-72
2022/05/24 00:28:28;;;;;;;7.95;5.38;;;13.70;99.90;;;;;;4985963;28;20446;-71
2022/05/24 00:30:55;;;;;;;11.20;6.97;;;13.70;99.90;;;;;;5003657;28;20050;-69
2022/05/24 00:33:21;;;;;;;10.38;6.50;;;13.70;99.90;;;;;;5001501;28;20042;-69
2022/05/24 00:35:48;;;;;;;10.77;6.80;;;13.70;99.90;;;;;;4973889;28;20061;-69
2022/05/24 00:38:23;;;;;;;13.65;6.97;;;13.60;99.90;;;;;;4994323;28;20049;-68
2022/05/24 00:41:09;;;;;;;11.48;6.82;;;13.60;99.90;;;;;;4990140;28;20053;-70
2022/05/24 00:43:45;;;;;;;11.13;7.32;;;13.60;99.90;;;;;;4980260;28;20053;-68
2022/05/24 00:46:22;;;;;;;13.38;7.03;;;13.60;99.90;;;;;;4995565;28;20042;-71
2022/05/24 00:49:13;;;;;;;9.40;6.63;;;13.40;99.90;;;;;;5007732;28;20492;-68
2022/05/24 00:51:54;;;;;;;13.70;7.80;;;13.40;99.90;;;;;;4995079;28;20083;-69
2022/05/24 00:54:20;;;;;;;11.75;8.02;;;13.40;99.90;;;;;;4995992;28;20285;-68
2022/05/24 00:56:58;;;;;;;13.35;8.40;;;13.40;99.90;;;;;;4995173;28;20054;-69
2022/05/24 00:59:51;;;;;;;16.77;9.90;;;13.40;99.90;;;;;;4993274;28;20053;-70
2022/05/24 01:02:18;;;;;;;18.00;10.98;;;13.40;99.90;;;;;;4995301;28;20450;-69
2022/05/24 01:04:44;;;;;;;16.13;10.98;;;13.40;99.90;;;;;;4979113;28;20093;-69
2022/05/24 01:07:11;;;;;;;16.40;10.23;;;13.40;99.90;;;;;;4995393;28;20064;-68
2022/05/24 01:09:49;;;;;;;16.92;10.45;;;13.30;99.90;;;;;;4993343;28;20057;-70
2022/05/24 01:12:32;;;;;;;17.77;10.43;;;13.20;99.90;;;;;;4995497;28;20132;-70
2022/05/24 01:15:02;;;;;;;15.32;10.40;;;13.10;99.90;;;;;;4992384;28;20137;-69
2022/05/24 01:17:29;;;;;;;13.73;9.75;;;13.10;99.90;;;;;;4977445;28;20132;-71
2022/05/24 01:19:55;;;;;;;13.73;9.27;;;13.00;99.90;;;;;;4978093;28;20499;-71
2022/05/24 01:22:39;;;;;;;14.85;9.30;;;12.90;99.90;;;;;;4994542;28;20053;-69
2022/05/24 01:25:43;;;;;;;15.43;9.25;;;12.80;99.90;;;;;;4994530;28;20046;-68
2022/05/24 01:28:17;;;;;;;13.07;8.60;;;12.80;99.90;;;;;;5009362;28;20057;-68
2022/05/24 01:30:43;;;;;;;13.80;9.05;;;12.60;99.90;;;;;;4992208;28;20050;-70
2022/05/24 01:36:13;;;;;;;15.15;9.50;;;12.60;99.90;;;;;;4979620;28;20058;-68
2022/05/24 01:39:00;;;;;;;13.27;9.38;;;12.50;99.90;;;;;;4962224;28;20125;-69
2022/05/24 01:41:42;;;;;;;14.43;9.93;;;12.50;99.90;;;;;;4988885;28;20133;-71
2022/05/24 01:44:11;;;;;;;14.25;10.20;;;12.40;99.90;;;;;;5010644;28;20045;-69
2022/05/24 01:46:42;;;;;;;17.08;10.88;;;12.40;99.90;;;;;;4978422;28;20096;-70
2022/05/24 01:49:16;;;;;;;16.17;10.80;;;12.30;99.90;;;;;;4992633;28;20059;-68
2022/05/24 01:52:17;;;;;;;15.80;10.27;;;12.30;99.90;;;;;;4989515;28;20049;-69
2022/05/24 01:54:47;;;;;;;18.42;11.00;;;12.30;99.90;;;;;;4961679;28;20506;-68
2022/05/24 01:57:21;;;;;;;14.85;9.43;;;12.30;99.90;;;;;;4976649;28;20058;-68
2022/05/24 01:59:50;;;;;;;20.02;10.95;;;12.30;99.90;;;;;;4984539;28;20057;-68
2022/05/24 02:02:17;;;;;;;19.95;11.82;;;12.20;99.90;;;;;;5002726;28;20476;-68
2022/05/24 02:04:43;;;;;;;23.58;13.30;;;12.20;99.90;;;;;;4983656;28;20380;-70
2022/05/24 02:07:13;;;;;;;19.58;11.98;;;12.20;99.90;;;;;;4990941;28;20454;-68
2022/05/24 02:09:42;;;;;;;16.33;11.45;;;12.20;99.90;;;;;;4959181;28;20510;-69
2022/05/24 02:12:12;;;;;;;23.95;12.63;;;12.20;99.90;;;;;;5004673;28;20053;-69
2022/05/24 02:14:43;;;;;;;20.05;11.63;;;12.30;99.90;;;;;;4994709;28;20070;-69
2022/05/24 02:17:15;;;;;;;17.05;11.32;;;12.30;99.90;;;;;;4981716;28;20053;-70
2022/05/24 02:19:47;;;;;;;21.13;12.05;;;12.30;99.90;;;;;;4989916;28;20085;-68
2022/05/24 02:22:18;;;;;;;;;;;12.40;99.90;;;;;;5000970;28;20060;-68
2022/05/24 02:24:45;;;;;;;16.35;10.85;;;12.40;99.90;;;;;;4979156;28;19922;-68
2022/05/24 02:27:11;;;;;;;23.60;11.50;;;12.30;99.90;;;;;;4958806;28;20050;-70
2022/05/24 02:29:37;;;;;;;14.48;10.38;;;12.40;99.90;;;;;;4975291;28;20050;-68
2022/05/24 02:32:04;;;;;;;20.88;11.18;;;12.40;99.90;;;;;;4950241;28;20529;-69
2022/05/24 02:34:30;;;;;;;18.67;10.73;;;12.40;99.90;;;;;;5008281;28;20586;-68
2022/05/24 02:36:56;;;;;;;17.55;11.30;;;12.40;99.90;;;;;;4986787;28;20066;-71
2022/05/24 02:39:23;;;;;;;16.67;10.05;;;12.40;99.90;;;;;;4986758;28;20856;-68
2022/05/24 02:41:49;;;;;;;19.92;10.85;;;12.40;99.90;;;;;;4994446;28;20092;-69
2022/05/24 02:44:16;;;;;;;17.10;11.02;;;12.40;99.90;;;;;;5012128;28;20054;-68
2022/05/24 02:46:46;;;;;;;15.40;10.65;;;12.40;99.90;;;;;;4993148;28;20096;-71
2022/05/24 02:49:12;;;;;;;17.30;10.50;;;12.40;99.90;;;;;;4993856;28;20049;-68
2022/05/24 02:51:40;;;;;;;20.08;10.65;;;12.50;99.90;;;;;;4992300;28;20080;-68
2022/05/24 02:54:07;;;;;;;17.30;11.60;;;12.50;99.90;;;;;;4994994;28;20129;-68
2022/05/24 02:56:34;;;;;;;21.33;11.30;;;12.60;99.90;;;;;;5007328;28;20084;-68
2022/05/24 02:59:00;;;;;;;20.20;12.13;;;12.60;99.90;;;;;;4976794;28;20054;-69
2022/05/24 03:01:29;;;;;;;21.70;12.48;;;12.60;99.90;;;;;;4992698;28;20070;-71
2022/05/24 03:03:57;;;;;;;22.88;12.30;;;12.70;99.90;;;;;;4991236;28;20184;-70
2022/05/24 03:06:25;;;;;;;24.33;14.13;;;12.80;99.90;;;;;;4990117;28;20049;-68
2022/05/24 03:14:23;;;;;;;24.40;13.77;;;12.90;99.90;;;;;;4992024;28;20054;-70
2022/05/24 03:16:52;;;;;;;26.20;14.50;;;12.90;99.90;;;;;;4990217;28;20050;-70
2022/05/24 03:19:18;;;;;;;27.55;14.70;;;13.00;99.90;;;;;;5009464;28;20562;-70
2022/05/24 03:21:44;;;;;;;25.98;15.13;;;13.00;99.90;;;;;;4994311;28;20049;-69
2022/05/24 03:24:10;;;;;;;28.75;14.98;;;13.00;99.90;;;;;;4991850;28;20053;-69
2022/05/24 03:26:37;;;;;;;30.17;16.30;;;13.10;99.90;;;;;;4991228;28;20049;-69
2022/05/24 03:29:04;;;;;;;27.45;16.10;;;13.10;99.90;;;;;;4975571;28;20112;-73
2022/05/24 03:31:31;;;;;;;26.80;16.42;;;13.10;99.90;;;;;;4992124;28;20086;-69
2022/05/24 03:33:57;;;;;;;28.00;16.92;;;13.20;99.90;;;;;;4976892;28;20549;-70
2022/05/24 03:36:23;;;;;;;27.40;16.15;;;13.20;99.90;;;;;;4972208;28;20434;-70
2022/05/24 03:38:49;;;;;;;33.15;17.42;;;13.20;99.90;;;;;;4990251;28;20038;-70
2022/05/24 03:41:15;;;;;;;33.67;18.63;;;13.30;99.90;;;;;;4975699;28;20494;-71
2022/05/24 03:43:41;;;;;;;35.13;18.85;;;13.20;99.90;;;;;;4994024;28;20045;-71
2022/05/24 03:46:09;;;;;;;35.05;20.60;;;13.30;99.90;;;;;;4988075;28;20517;-71
2022/05/24 03:48:36;;;;;;;34.83;19.95;;;13.30;99.90;;;;;;4977865;28;20081;-71
2022/05/24 03:51:03;;;;;;;39.65;21.00;;;13.30;99.90;;;;;;4991962;28;20092;-69
2022/05/24 03:53:30;;;;;;;41.08;22.02;;;13.30;99.90;;;;;;4992458;28;20054;-70
2022/05/24 03:55:56;;;;;;;45.83;22.13;;;13.40;99.90;;;;;;4992161;28;20051;-71
2022/05/24 03:58:23;;;;;;;44.83;23.58;;;13.40;99.90;;;;;;4991406;28;20045;-71
2022/05/24 04:00:49;;;;;;;43.92;22.52;;;13.40;99.90;;;;;;4974002;28;20418;-72
2022/05/24 04:03:15;;;;;;;39.70;22.65;;;13.40;99.90;;;;;;4994145;28;21549;-70
2022/05/24 04:05:41;;;;;;;45.95;23.75;;;13.40;99.90;;;;;;5010096;28;20534;-69
2022/05/24 04:08:08;;;;;;;46.80;24.85;;;13.50;99.90;;;;;;4991235;28;20049;-70
2022/05/24 04:10:35;;;;;;;49.25;24.90;;;13.50;99.90;;;;;;4990281;28;20060;-68
2022/05/24 04:13:02;;;;;;;48.10;24.98;;;13.60;99.90;;;;;;4988532;28;20147;-69
2022/05/24 04:15:28;;;;;;;48.70;26.35;;;13.60;99.90;;;;;;4989765;28;20494;-70
2022/05/24 04:17:55;;;;;;;51.92;25.75;;;13.60;99.90;;;;;;4987856;28;20046;-69
2022/05/24 04:20:23;;;;;;;54.08;28.00;;;13.70;99.90;;;;;;4991717;28;20064;-70
2022/05/24 04:22:52;;;;;;;49.72;26.70;;;13.70;99.90;;;;;;4974237;28;20058;-69
2022/05/24 04:25:20;;;;;;;49.10;26.88;;;13.70;99.90;;;;;;4986509;28;20061;-69
2022/05/24 04:27:47;;;;;;;52.67;28.15;;;13.90;99.90;;;;;;4989374;28;20041;-68
2022/05/24 04:30:14;;;;;;;51.88;27.17;;;13.80;99.90;;;;;;4989898;28;20054;-69
2022/05/24 04:32:40;;;;;;;52.80;27.40;;;13.80;99.90;;;;;;4992216;28;20502;-70
2022/05/24 04:35:07;;;;;;;52.38;27.40;;;13.80;99.90;;;;;;4990796;28;20073;-69
2022/05/24 04:37:33;;;;;;;51.85;27.88;;;13.90;99.90;;;;;;4992310;28;20128;-68
2022/05/24 04:39:59;;;;;;;46.20;26.58;;;13.90;99.90;;;;;;4995011;28;20049;-68
2022/05/24 04:42:25;;;;;;;47.30;26.75;;;13.90;99.90;;;;;;4995809;28;20057;-69
2022/05/24 04:44:54;;;;;;;50.22;28.30;;;14.00;99.90;;;;;;4992849;28;20172;-70
2022/05/24 04:47:21;;;;;;;49.08;27.20;;;14.00;99.90;;;;;;4994346;28;20113;-69
2022/05/24 04:49:53;;;;;;;43.78;25.35;;;14.00;99.90;;;;;;4993797;28;20057;-69
2022/05/24 04:52:23;;;;;;;47.17;26.00;;;14.10;99.90;;;;;;4978301;28;20046;-70
2022/05/24 04:54:50;;;;;;;45.92;26.35;;;14.10;99.90;;;;;;4980019;28;20089;-69
2022/05/24 04:57:17;;;;;;;46.45;25.90;;;14.10;99.90;;;;;;4989847;28;20066;-69
2022/05/24 04:59:43;;;;;;;41.55;24.25;;;14.10;99.90;;;;;;4981592;28;20053;-70
2022/05/24 05:02:09;;;;;;;43.78;24.88;;;14.10;99.90;;;;;;4991822;28;20403;-69
2022/05/24 05:04:36;;;;;;;40.22;24.52;;;14.20;99.90;;;;;;4988905;28;20446;-69
2022/05/24 05:07:02;;;;;;;42.60;24.75;;;14.20;99.90;;;;;;4988760;28;20060;-69
2022/05/24 05:09:38;;;;;;;38.50;23.13;;;14.20;99.90;;;;;;4983661;28;20129;-71
2022/05/24 05:12:09;;;;;;;43.40;25.05;;;14.20;99.90;;;;;;4995569;28;20132;-72
2022/05/24 05:14:36;;;;;;;39.40;24.45;;;14.20;99.90;;;;;;4994611;28;20545;-70
2022/05/24 05:17:02;;;;;;;38.60;22.73;;;14.20;99.90;;;;;;4976868;28;20490;-69
2022/05/24 05:19:28;;;;;;;39.97;23.05;;;14.20;99.90;;;;;;4968077;28;20092;-71
2022/05/24 05:21:55;;;;;;;40.90;23.00;;;14.30;99.90;;;;;;5003936;28;20046;-71
2022/05/24 05:24:21;;;;;;;38.05;23.55;;;14.30;99.90;;;;;;4986620;28;20045;-70
2022/05/24 05:26:47;;;;;;;42.72;25.15;;;14.30;99.90;;;;;;4975635;28;20090;-69
2022/05/24 05:29:13;;;;;;;38.53;22.67;;;14.30;99.90;;;;;;4976174;28;20057;-72
2022/05/24 05:31:39;;;;;;;37.47;22.52;;;14.40;99.90;;;;;;4989499;28;20060;-70
2022/05/24 05:34:05;;;;;;;40.65;22.17;;;14.40;99.90;;;;;;4966589;28;20510;-69
2022/05/24 05:36:33;;;;;;;35.80;21.75;;;14.40;99.90;;;;;;4993773;28;20132;-70
2022/05/24 05:38:59;;;;;;;35.85;22.25;;;14.40;99.90;;;;;;5010098;28;20571;-69
2022/05/24 05:41:31;;;;;;;36.15;21.70;;;14.40;99.90;;;;;;4958333;28;20100;-70
2022/05/24 05:43:59;;;;;;;33.80;21.67;;;14.40;99.90;;;;;;4992566;28;20097;-69
2022/05/24 05:46:26;;;;;;;33.05;20.17;;;14.40;99.90;;;;;;4973445;28;20049;-71
2022/05/24 05:48:52;;;;;;;34.13;20.23;;;14.40;99.90;;;;;;4964805;28;20166;-69
2022/05/24 05:51:19;;;;;;;34.58;20.45;;;14.40;99.90;;;;;;4982742;28;20053;-70
2022/05/24 05:53:45;;;;;;;32.17;20.08;;;14.40;99.90;;;;;;4994102;28;20050;-70
2022/05/24 05:56:20;;;;;;;35.17;21.50;;;14.50;99.90;;;;;;4994396;28;20064;-71
2022/05/24 05:58:49;;;;;;;31.83;20.20;;;14.50;99.90;;;;;;4995071;28;20068;-71
2022/05/24 06:01:29;;;;;;;32.25;19.70;;;14.50;99.90;;;;;;4989829;28;20042;-71
2022/05/24 06:03:56;;;;;;;37.10;22.50;;;14.50;99.90;;;;;;4992723;28;20483;-70
2022/05/24 06:06:27;;;;;;;39.78;24.63;;;14.50;99.90;;;;;;4982784;28;20043;-70
2022/05/24 06:08:53;;;;;;;40.27;25.00;;;14.40;99.90;;;;;;4987233;28;20053;-71
2022/05/24 06:11:19;;;;;;;40.80;24.00;;;14.30;99.90;;;;;;4942763;28;20282;-70
2022/05/24 06:13:46;;;;;;;46.20;24.48;;;14.30;99.90;;;;;;4990931;28;20080;-71
2022/05/24 06:16:13;;;;;;;41.22;23.38;;;14.40;99.90;;;;;;4992841;28;20077;-71
2022/05/24 06:18:40;;;;;;;44.97;24.35;;;14.40;99.90;;;;;;4984033;28;20088;-70
2022/05/24 06:21:06;;;;;;;39.05;24.23;;;14.50;99.90;;;;;;4981548;28;20054;-73
2022/05/24 06:23:33;;;;;;;43.70;25.45;;;14.50;99.90;;;;;;4966443;28;20158;-70
2022/05/24 06:25:59;;;;;;;42.67;23.02;;;14.50;99.90;;;;;;4994129;28;20049;-69
2022/05/24 06:28:26;;;;;;;42.15;24.08;;;14.50;99.90;;;;;;5006672;28;20050;-70
2022/05/24 06:30:52;;;;;;;45.13;25.10;;;14.50;99.90;;;;;;5009590;28;20108;-70
2022/05/24 06:33:19;;;;;;;45.60;23.67;;;14.60;99.90;;;;;;4990491;28;20041;-70
2022/05/24 06:35:45;;;;;;;34.05;21.00;;;14.70;99.90;;;;;;4978090;28;20056;-72
2022/05/24 06:38:11;;;;;;;41.65;23.65;;;14.80;99.90;;;;;;4986079;28;20445;-70
2022/05/24 06:40:38;;;;;;;33.40;19.70;;;14.90;99.90;;;;;;4988037;28;20083;-73
2022/05/24 06:43:04;;;;;;;33.67;20.88;;;14.90;99.90;;;;;;4981407;28;20046;-73
2022/05/24 06:45:31;;;;;;;34.35;21.55;;;14.80;99.90;;;;;;4971241;28;20054;-72
2022/05/24 06:47:57;;;;;;;32.70;19.40;;;14.70;99.90;;;;;;4986284;28;20108;-72
2022/05/24 06:50:24;;;;;;;33.35;19.80;;;14.60;99.90;;;;;;4989889;28;20046;-70
2022/05/24 06:52:55;;;;;;;33.58;17.60;;;14.60;99.90;;;;;;4975006;28;20137;-72
2022/05/24 06:55:22;;;;;;;32.08;17.33;;;14.50;99.90;;;;;;4988244;28;20095;-72
2022/05/24 06:57:49;;;;;;;33.15;18.15;;;14.40;99.90;;;;;;4984749;28;20062;-71
2022/05/24 07:03:07;;;;;;;35.78;17.63;;;14.40;99.90;;;;;;4993891;28;20524;-71
2022/05/24 07:05:34;;;;;;;32.45;18.27;;;14.30;99.90;;;;;;4976786;28;20073;-71
2022/05/24 07:08:01;;;;;;;31.13;16.65;;;14.30;99.90;;;;;;4991826;28;20068;-72
2022/05/24 07:10:33;;;;;;;30.60;17.55;;;14.30;99.90;;;;;;5009032;28;20045;-72
2022/05/24 07:13:11;;;;;;;32.42;17.05;;;14.30;99.90;;;;;;4992331;28;20053;-71
2022/05/24 07:15:38;;;;;;;25.40;15.68;;;14.30;99.90;;;;;;4993235;28;20084;-70
2022/05/24 07:18:04;;;;;;;24.75;14.32;;;14.20;99.90;;;;;;4987403;28;20045;-70
2022/05/24 07:20:33;;;;;;;28.35;15.63;;;14.20;99.90;;;;;;4987897;28;20116;-70
2022/05/24 07:23:12;;;;;;;29.15;16.60;;;14.20;99.90;;;;;;4975543;28;20498;-70
2022/05/24 07:25:41;;;;;;;30.33;16.25;;;14.20;99.90;;;;;;4996002;28;20126;-69
2022/05/24 07:28:08;;;;;;;30.23;16.90;;;14.20;99.90;;;;;;4991675;28;20084;-69
2022/05/24 07:30:35;;;;;;;29.05;15.75;;;14.30;99.90;;;;;;4994783;28;20081;-70
2022/05/24 07:33:01;;;;;;;25.50;15.88;;;14.30;99.90;;;;;;5009143;28;20066;-69
2022/05/24 07:35:28;;;;;;;26.40;15.48;;;14.40;99.90;;;;;;4989096;28;20398;-69
2022/05/24 07:37:54;;;;;;;23.67;15.43;;;14.30;99.90;;;;;;4984841;28;20057;-69
2022/05/24 07:45:54;;;;;;;24.30;14.77;;;14.40;99.90;;;;;;4979145;28;20502;-69
2022/05/24 07:48:20;;;;;;;24.05;13.65;;;14.50;99.90;;;;;;4992674;28;20052;-70
2022/05/24 07:50:47;;;;;;;26.25;15.23;;;14.60;99.90;;;;;;4992867;28;20121;-79
2022/05/24 07:53:14;;;;;;;25.95;14.48;;;14.80;99.90;;;;;;4977127;28;20060;-77
2022/05/24 07:55:40;;;;;;;26.13;14.77;;;14.70;99.90;;;;;;4978021;28;20056;-74
2022/05/24 07:58:06;;;;;;;24.00;15.20;;;14.80;99.90;;;;;;5010322;28;20056;-75
2022/05/24 08:00:33;;;;;;;24.15;14.10;;;14.80;99.90;;;;;;4992122;28;20057;-74
2022/05/24 08:03:01;;;;;;;25.45;14.75;;;14.80;99.90;;;;;;4974989;28;20066;-75
2022/05/24 08:05:30;;;;;;;22.45;13.75;;;14.80;99.90;;;;;;4996754;28;20507;-76
2022/05/24 08:07:57;;;;;;;20.10;12.23;;;14.70;99.90;;;;;;4996883;28;20065;-80
2022/05/24 08:10:23;;;;;;;20.92;13.13;;;14.70;99.90;;;;;;4976353;28;20050;-78
2022/05/24 08:12:49;;;;;;;24.08;14.07;;;14.80;99.90;;;;;;4979809;28;20042;-77
2022/05/24 08:15:15;;;;;;;21.60;13.20;;;14.90;99.90;;;;;;4994712;28;20053;-76
2022/05/24 08:17:41;;;;;;;23.23;13.05;;;14.90;99.90;;;;;;4996985;28;20054;-78
2022/05/24 08:20:11;;;;;;;23.83;13.50;;;15.00;99.90;;;;;;4963862;28;20092;-73
2022/05/24 08:22:41;;;;;;;19.35;12.80;;;15.10;99.90;;;;;;4996548;28;20050;-76
2022/05/24 08:25:09;;;;;;;19.83;13.27;;;15.00;99.90;;;;;;4975489;28;20069;-74
2022/05/24 08:27:35;;;;;;;22.70;13.20;;;14.90;99.90;;;;;;4990724;28;20406;-76
2022/05/24 08:30:01;;;;;;;22.33;13.85;;;14.90;99.90;;;;;;4990981;28;20054;-75
2022/05/24 08:32:27;;;;;;;19.95;12.45;;;14.90;99.90;;;;;;4991404;28;20041;-76
2022/05/24 08:34:53;;;;;;;22.17;13.73;;;14.80;99.90;;;;;;4990913;28;20045;-76
2022/05/24 08:37:19;;;;;;;21.58;13.95;;;14.70;99.90;;;;;;4991389;28;20128;-76
2022/05/24 08:39:45;;;;;;;23.73;13.35;;;14.80;99.90;;;;;;4991681;28;20136;-76
2022/05/24 08:42:32;;;;;;;20.25;11.95;;;14.80;99.90;;;;;;4993075;28;20082;-77
2022/05/24 08:50:47;;;;;;;20.63;13.32;;;15.00;99.90;;;;;;4991552;28;20046;-75
2022/05/24 08:53:26;;;;;;;22.98;13.23;;;15.10;99.90;;;;;;4976542;28;20042;-75
2022/05/24 08:55:52;;;;;;;20.17;12.55;;;15.10;99.90;;;;;;4990025;28;20176;-75
2022/05/24 08:58:38;;;;;;;18.60;11.93;;;15.00;99.90;;;;;;5009475;28;20064;-76
2022/05/24 09:01:21;;;;;;;21.95;13.25;;;14.90;99.90;;;;;;5008129;28;20125;-75
2022/05/24 09:03:46;;;;;;;20.85;13.00;;;15.10;99.90;;;;;;4992157;28;20046;-74
2022/05/24 09:06:34;;;;;;;19.27;13.20;;;15.20;99.90;;;;;;4994559;28;20045;-75
2022/05/24 09:09:20;;;;;;;21.55;12.77;;;15.50;99.90;;;;;;4990413;28;20334;-74
2022/05/24 09:12:19;;;;;;;20.58;11.50;;;15.60;99.90;;;;;;4990148;28;20045;-74
2022/05/24 09:14:49;;;;;;;16.98;10.82;;;15.60;99.90;;;;;;4991668;28;20111;-74
2022/05/24 09:17:42;;;;;;;18.48;11.40;;;15.80;99.90;;;;;;4990333;28;20057;-74
2022/05/24 09:20:31;;;;;;;14.90;9.35;;;16.00;99.90;;;;;;5009653;28;20088;-75
2022/05/24 09:23:18;;;;;;;19.80;12.90;;;15.80;99.90;;;;;;4994209;28;20046;-76
2022/05/24 09:26:07;;;;;;;21.08;12.30;;;16.00;99.90;;;;;;4984745;28;20498;-75
2022/05/24 09:28:53;;;;;;;17.63;10.77;;;16.30;99.90;;;;;;4994784;28;20422;-74
2022/05/24 09:31:25;;;;;;;16.63;10.63;;;16.70;99.90;;;;;;4976389;28;20443;-76
2022/05/24 09:33:58;;;;;;;16.30;10.70;;;17.00;99.90;;;;;;4960109;28;20135;-75
2022/05/24 09:36:54;;;;;;;15.07;9.05;;;17.00;99.90;;;;;;4981573;28;20050;-77
2022/05/24 09:39:39;;;;;;;12.40;10.02;;;17.20;99.90;;;;;;4990254;28;20077;-75
2022/05/24 09:42:24;;;;;;;13.43;7.55;;;17.40;99.90;;;;;;5008182;28;20103;-74
2022/05/24 09:45:09;;;;;;;11.23;7.35;;;17.00;99.90;;;;;;4991067;28;20057;-75
2022/05/24 09:47:53;;;;;;;11.02;7.63;;;16.80;99.90;;;;;;4974718;28;20042;-75
2022/05/24 09:50:33;;;;;;;13.07;8.05;;;16.60;99.90;;;;;;4975872;28;20042;-74
2022/05/24 09:53:17;;;;;;;10.93;7.57;;;16.50;99.90;;;;;;4991374;28;20057;-74
2022/05/24 09:55:52;;;;;;;10.30;6.55;;;16.30;99.90;;;;;;4976960;28;20077;-74
2022/05/24 09:58:21;;;;;;;7.28;5.95;;;16.10;99.90;;;;;;5009872;28;20049;-74
2022/05/24 10:00:52;;;;;;;13.27;7.18;;;16.10;99.90;;;;;;5009868;28;20490;-77
2022/05/24 10:03:24;;;;;;;10.35;6.60;;;16.50;99.90;;;;;;4984619;28;20049;-79
2022/05/24 10:06:16;;;;;;;8.05;6.60;;;16.70;99.90;;;;;;4990442;28;20140;-77
2022/05/24 10:08:53;;;;;;;3.08;2.75;;;16.60;99.90;;;;;;4990136;28;20129;-77
2022/05/24 10:11:23;;;;;;;3.20;0.98;;;16.20;99.90;;;;;;5003874;28;20062;-69
2022/05/24 10:14:20;;;;;;;2.25;0.60;;;15.60;99.90;;;;;;4993319;28;20088;-71
2022/05/24 10:17:19;;;;;;;3.30;1.13;;;14.80;99.90;;;;;;4959253;28;20150;-71
2022/05/24 10:19:56;;;;;;;2.90;0.73;;;14.20;99.90;;;;;;4973472;28;20053;-71
2022/05/24 10:22:49;;;;;;;1.67;1.00;;;13.60;99.90;;;;;;4992602;28;20046;-71
2022/05/24 10:25:44;;;;;;;7.43;1.60;;;13.40;99.90;;;;;;4989311;28;20498;-71
2022/05/24 10:28:18;;;;;;;4.97;2.00;;;13.00;99.90;;;;;;4989431;28;20087;-71
2022/05/24 10:31:03;;;;;;;8.15;2.83;;;12.40;99.90;;;;;;4988547;28;20120;-71
2022/05/24 10:39:45;;;;;;;3.67;2.85;;;12.80;99.90;;;;;;5007474;28;20050;-70
2022/05/24 10:42:14;;;;;;;6.68;3.10;;;13.40;99.90;;;;;;4989215;28;20053;-72
2022/05/24 10:44:50;;;;;;;7.78;4.63;;;13.90;99.90;;;;;;4988935;28;20429;-69
2022/05/24 10:47:36;;;;;;;9.30;5.63;;;14.50;99.90;;;;;;5005998;28;20333;-72
2022/05/24 10:50:15;;;;;;;6.45;4.80;;;15.00;99.90;;;;;;4991663;28;20045;-70
2022/05/24 10:52:52;;;;;;;7.53;5.22;;;14.90;99.90;;;;;;4989251;28;20058;-71
2022/05/24 10:55:31;;;;;;;6.32;4.38;;;14.80;99.90;;;;;;4974290;28;20073;-71
2022/05/24 10:58:02;;;;;;;8.55;4.70;;;14.60;99.90;;;;;;4989134;28;20053;-71
2022/05/24 11:00:39;;;;;;;8.80;5.57;;;14.40;99.90;;;;;;5012326;28;20104;-69
2022/05/24 11:03:13;;;;;;;9.30;5.07;;;14.10;99.90;;;;;;5013283;28;20371;-72
2022/05/24 11:05:50;;;;;;;6.00;2.83;;;13.80;99.90;;;;;;4994176;28;20087;-71
2022/05/24 11:08:25;;;;;;;1.15;0.90;;;13.30;99.90;;;;;;4977184;28;20049;-72
2022/05/24 11:10:51;;;;;;;1.40;0.70;;;12.50;99.90;;;;;;5011297;28;20394;-71
2022/05/24 11:13:46;;;;;;;0.95;0.65;;;11.90;99.90;;;;;;4976701;28;20080;-70
2022/05/24 11:16:19;;;;;;;0.90;0.57;;;11.60;99.90;;;;;;4977702;28;20049;-71
2022/05/24 11:18:45;;;;;;;2.17;0.70;;;11.40;99.90;;;;;;4994685;28;20050;-71
2022/05/24 11:21:50;;;;;;;2.40;1.02;;;11.30;99.90;;;;;;4994962;28;20438;-70
2022/05/24 11:24:31;;;;;;;3.22;1.40;;;11.40;99.90;;;;;;4957123;28;20089;-71
2022/05/24 11:27:00;;;;;;;4.45;1.98;;;11.40;99.90;;;;;;4993970;28;20053;-70
2022/05/24 11:29:48;;;;;;;4.90;2.10;;;11.50;99.90;;;;;;4983331;28;20042;-71
2022/05/24 11:32:31;;;;;;;4.75;1.88;;;11.90;99.90;;;;;;4988931;28;20487;-71
2022/05/24 11:35:11;;;;;;;1.80;1.50;;;12.30;99.90;;;;;;4994329;28;20115;-72
2022/05/24 11:37:41;;;;;;;3.35;1.90;;;12.70;99.90;;;;;;4994936;28;20518;-70
2022/05/24 11:40:31;;;;;;;4.40;2.08;;;12.90;99.90;;;;;;4992855;28;20418;-69
2022/05/24 11:43:00;;;;;;;3.53;2.47;;;13.20;99.90;;;;;;4994241;28;20041;-70
2022/05/24 11:45:29;;;;;;;4.80;2.70;;;13.40;99.90;;;;;;4992378;28;20360;-72
2022/05/24 11:47:57;;;;;;;3.78;3.00;;;13.70;99.90;;;;;;5009365;28;20108;-71
2022/05/24 11:50:40;;;;;;;5.43;2.90;;;13.80;99.90;;;;;;5010721;28;20046;-71
2022/05/24 11:53:19;;;;;;;5.47;3.55;;;13.80;99.90;;;;;;4992413;28;20176;-70
2022/05/24 11:55:54;;;;;;;11.00;4.78;;;13.80;99.90;;;;;;4994342;28;20042;-70
2022/05/24 11:58:21;;;;;;;10.88;5.35;;;14.00;99.90;;;;;;4994108;28;20073;-70
2022/05/24 12:01:29;;;;;;;9.38;4.68;;;14.20;99.90;;;;;;4993738;28;20112;-72
2022/05/24 12:10:11;;;;;;;5.55;3.50;;;15.10;99.90;;;;;;4991711;28;20086;-70
2022/05/24 12:12:57;;;;;;;5.15;3.42;;;15.60;99.90;;;;;;4993157;28;20149;-72
2022/05/24 12:15:49;;;;;;;4.80;3.05;;;16.00;99.90;;;;;;4991337;28;20049;-70
2022/05/24 12:18:18;;;;;;;4.90;3.33;;;15.80;99.90;;;;;;4976767;28;20081;-71
2022/05/24 12:20:44;;;;;;;4.88;3.05;;;15.80;99.90;;;;;;4994370;28;20066;-71
2022/05/24 12:23:19;;;;;;;4.93;2.78;;;15.80;99.90;;;;;;4991586;28;20046;-70
2022/05/24 12:26:03;;;;;;;4.18;2.30;;;15.60;99.90;;;;;;4992455;28;20046;-71
2022/05/24 12:28:37;;;;;;;5.53;3.00;;;15.40;99.90;;;;;;4993991;28;20468;-70
2022/05/24 12:31:09;;;;;;;5.10;2.80;;;15.20;99.90;;;;;;4975926;28;20092;-69
2022/05/24 12:33:57;;;;;;;4.72;2.60;;;14.80;99.90;;;;;;4993747;28;20053;-71
2022/05/24 12:36:28;;;;;;;4.85;2.97;;;14.90;99.90;;;;;;4981914;28;20061;-71
2022/05/24 12:39:06;;;;;;;5.28;2.55;;;14.90;99.90;;;;;;4993535;28;20108;-71
2022/05/24 12:41:52;;;;;;;3.28;2.80;;;14.90;99.90;;;;;;4992559;28;20092;-70
2022/05/24 12:44:23;;;;;;;3.95;2.67;;;14.80;99.90;;;;;;4992172;28;20103;-70
2022/05/24 12:46:51;;;;;;;5.28;2.85;;;15.30;99.90;;;;;;4995204;28;20054;-71
2022/05/24 12:49:30;;;;;;;4.03;2.30;;;16.10;99.90;;;;;;4995986;28;20411;-71
2022/05/24 12:52:03;;;;;;;2.47;2.03;;;16.70;99.90;;;;;;4976481;28;20364;-72
2022/05/24 12:54:32;;;;;;;2.80;1.83;;;16.70;99.90;;;;;;4991610;28;20448;-73
2022/05/24 12:57:05;;;;;;;3.38;2.17;;;16.50;99.90;;;;;;4991022;28;20570;-71
2022/05/24 12:59:38;;;;;;;3.00;1.70;;;16.30;99.90;;;;;;5009589;28;20137;-71
2022/05/24 13:02:21;;;;;;;1.38;1.17;;;16.00;99.90;;;;;;4991623;28;20187;-71
2022/05/24 13:04:48;;;;;;;1.85;0.98;;;16.10;99.90;;;;;;4991682;28;20046;-70
2022/05/24 13:07:35;;;;;;;2.28;0.93;;;16.10;99.90;;;;;;4992731;28;20034;-70
2022/05/24 13:10:03;;;;;;;1.30;0.80;;;15.70;99.90;;;;;;4990395;28;20443;-71
2022/05/24 13:12:29;;;;;;;1.48;0.60;;;15.20;99.90;;;;;;5010642;28;20049;-71
2022/05/24 13:15:01;;;;;;;3.63;0.60;;;14.50;99.90;;;;;;5008496;28;20042;-71
2022/05/24 13:17:30;;;;;;;0.85;0.50;;;13.80;99.90;;;;;;4992001;28;20045;-71
2022/05/24 13:20:06;;;;;;;1.20;0.55;;;13.30;99.90;;;;;;5007231;28;20046;-73
2022/05/24 13:23:13;;;;;;;0.70;0.60;;;13.20;99.90;;;;;;4991166;28;20042;-71
2022/05/24 13:26:01;;;;;;;1.50;0.52;;;13.30;99.90;;;;;;4951960;29;20089;-70
2022/05/24 13:28:31;;;;;;;1.38;0.60;;;13.60;99.90;;;;;;4994679;28;20050;-70
2022/05/24 13:33:50;;;;;;;2.17;0.90;;;14.40;99.90;;;;;;4978418;28;20053;-72
2022/05/24 13:36:29;;;;;;;3.03;1.00;;;14.80;99.90;;;;;;4974514;28;20046;-71